createdAt,value
2022-09-23T00:02:00.756Z,5.58
2022-09-23T00:07:03.515Z,5.60
2022-09-23T00:12:09.008Z,5.67
2022-09-23T00:17:12.342Z,5.73
2022-09-23T00:22:16.435Z,5.76
2022-09-23T00:27:21.174Z,5.73
2022-09-23T00:32:23.812Z,5.70
2022-09-23T00:37:28.342Z,5.68
2022-09-23T00:42:31.012Z,5.68
2022-09-23T00:47:46.198Z,5.70
2022-09-23T00:52:51.062Z,5.66
2022-09-23T00:57:57.026Z,5.57
2022-09-23T01:03:01.674Z,5.48
2022-09-23T01:08:04.915Z,5.44
2022-09-23T01:13:32.158Z,5.45
2022-09-23T01:18:50.133Z,5.45
2022-09-23T01:24:11.578Z,5.41
2022-09-23T01:29:57.562Z,5.43
2022-09-23T01:35:15.282Z,5.52
2022-09-23T01:40:45.551Z,5.52
2022-09-23T01:45:56.454Z,5.39
2022-09-23T01:51:24.831Z,5.30
2022-09-23T01:56:31.441Z,5.20
2022-09-23T02:01:42.904Z,5.18
2022-09-23T02:06:55.599Z,5.19
2022-09-23T02:12:05.750Z,5.11
2022-09-23T02:17:14.174Z,5.08
2022-09-23T02:22:40.931Z,5.10
2022-09-23T02:27:54.568Z,5.12
2022-09-23T02:33:08.054Z,5.13
2022-09-23T02:38:19.955Z,5.20
2022-09-23T02:43:32.193Z,5.24
2022-09-23T02:48:49.125Z,5.20
2022-09-23T02:53:55.921Z,5.08
2022-09-23T02:58:58.819Z,5.01
2022-09-23T03:04:27.426Z,4.90
2022-09-23T03:09:32.490Z,4.76
2022-09-23T03:14:58.430Z,4.72
2022-09-23T03:20:12.982Z,4.73
2022-09-23T03:25:20.001Z,4.63
2022-09-23T03:30:22.672Z,4.59
2022-09-23T03:35:28.879Z,4.59
2022-09-23T03:40:47.920Z,4.52
2022-09-23T03:45:57.425Z,4.51
2022-09-23T03:51:19.607Z,4.50
2022-09-23T03:56:22.243Z,4.59
2022-09-23T04:01:25.050Z,4.59
2022-09-23T04:06:27.750Z,4.57
2022-09-23T04:11:30.717Z,4.46
2022-09-23T04:16:33.580Z,4.38
2022-09-23T04:21:37.204Z,4.33
2022-09-23T04:26:40.310Z,4.39
2022-09-23T04:31:43.061Z,4.50
2022-09-23T04:36:47.307Z,4.58
2022-09-23T04:41:50.041Z,4.61
2022-09-23T04:46:53.320Z,4.61
2022-09-23T04:51:56.484Z,4.60
2022-09-23T04:56:59.382Z,4.66
2022-09-23T05:02:02.074Z,4.82
2022-09-23T05:07:04.972Z,4.98
2022-09-23T05:12:07.751Z,5.04
2022-09-23T05:17:10.481Z,4.99
2022-09-23T05:22:13.272Z,5.03
2022-09-23T05:27:15.971Z,4.97
2022-09-23T05:32:19.290Z,4.93
2022-09-23T05:37:22.606Z,4.98
2022-09-23T05:42:25.250Z,5.00
2022-09-23T05:47:27.935Z,5.09
2022-09-23T05:52:37.761Z,5.29
2022-09-23T05:57:40.822Z,5.52
2022-09-23T06:02:43.536Z,5.72
2022-09-23T06:07:46.209Z,5.90
2022-09-23T06:12:48.986Z,6.06
2022-09-23T06:17:51.672Z,6.08
2022-09-23T06:22:55.654Z,6.05
2022-09-23T06:27:59.283Z,6.09
2022-09-23T06:33:02.521Z,6.33
2022-09-23T06:38:05.139Z,6.68
2022-09-23T06:43:08.842Z,6.94
2022-09-23T06:48:12.170Z,7.14
2022-09-23T06:53:16.327Z,7.11
2022-09-23T06:58:19.001Z,7.14
2022-09-23T07:03:22.504Z,7.23
2022-09-23T07:08:27.328Z,7.42
2022-09-23T07:13:32.450Z,7.60
2022-09-23T07:18:37.569Z,7.75
2022-09-23T07:23:42.280Z,7.92
2022-09-23T07:28:46.260Z,8.04
2022-09-23T07:33:49.642Z,8.18
2022-09-23T07:38:52.456Z,8.27
2022-09-23T07:43:58.900Z,8.53
2022-09-23T07:49:03.286Z,8.97
2022-09-23T07:54:08.864Z,9.29
2022-09-23T07:59:25.735Z,9.57
2022-09-23T08:04:31.224Z,9.97
2022-09-23T08:09:41.662Z,10.52
2022-09-23T08:14:45.456Z,10.92
2022-09-23T08:19:48.261Z,11.22
2022-09-23T08:24:52.414Z,11.29
2022-09-23T08:29:56.659Z,11.23
2022-09-23T08:34:59.983Z,11.19
2022-09-23T08:40:02.682Z,11.25
2022-09-23T08:45:13.507Z,11.36
2022-09-23T08:50:28.871Z,11.50
2022-09-23T08:55:44.473Z,11.72
2022-09-23T09:01:25.776Z,12.05
2022-09-23T09:06:28.819Z,12.27
2022-09-23T09:11:38.949Z,12.47
2022-09-23T09:16:59.579Z,12.60
2022-09-23T09:22:13.888Z,12.56
2022-09-23T09:27:19.156Z,12.28
2022-09-23T09:32:38.862Z,12.10
2022-09-23T09:37:46.892Z,12.05
2022-09-23T09:42:50.415Z,12.24
2022-09-23T09:48:20.861Z,12.38
2022-09-23T09:53:26.990Z,12.30
2022-09-23T09:58:43.958Z,12.35
2022-09-23T10:03:47.369Z,12.49
2022-09-23T10:09:10.736Z,12.62
2022-09-23T10:14:21.128Z,13.03
2022-09-23T10:19:28.636Z,13.75
2022-09-23T10:24:36.366Z,14.41
2022-09-23T10:29:46.482Z,14.57
2022-09-23T10:34:53.373Z,14.36
2022-09-23T10:40:22.161Z,14.05
2022-09-23T10:45:47.889Z,13.95
2022-09-23T10:50:53.284Z,13.89
2022-09-23T10:56:32.219Z,14.10
2022-09-23T11:01:49.473Z,14.44
2022-09-23T11:07:07.372Z,14.59
2022-09-23T11:12:16.356Z,14.90
2022-09-23T11:17:42.267Z,15.05
2022-09-23T11:22:45.660Z,15.34
2022-09-23T11:28:25.056Z,15.42
2022-09-23T11:33:37.702Z,14.84
2022-09-23T11:38:45.022Z,14.24
2022-09-23T11:43:53.259Z,13.58
2022-09-23T11:49:03.482Z,13.03
2022-09-23T11:54:20.899Z,12.66
2022-09-23T11:59:41.179Z,12.43
2022-09-23T12:04:57.036Z,12.24
2022-09-23T12:10:08.733Z,12.11
2022-09-23T12:15:52.655Z,12.06
2022-09-23T12:21:46.333Z,12.00
2022-09-23T12:26:54.398Z,11.97
2022-09-23T12:31:57.185Z,12.08
2022-09-23T12:37:06.267Z,12.25
2022-09-23T12:42:18.537Z,12.38
2022-09-23T12:47:24.833Z,12.52
2022-09-23T12:52:31.532Z,12.72
2022-09-23T12:57:34.210Z,13.13
2022-09-23T13:03:07.858Z,13.58
2022-09-23T13:08:25.475Z,13.96
2022-09-23T13:13:34.292Z,14.24
2022-09-23T13:18:56.965Z,14.31
2022-09-23T13:24:22.578Z,14.37
2022-09-23T13:29:28.049Z,14.55
2022-09-23T13:34:33.719Z,14.71
2022-09-23T13:39:36.729Z,14.69
2022-09-23T13:44:40.894Z,14.83
2022-09-23T13:49:43.684Z,14.95
2022-09-23T13:54:48.840Z,15.19
2022-09-23T13:59:51.780Z,15.44
2022-09-23T14:04:58.435Z,15.84
2022-09-23T14:10:01.446Z,15.87
2022-09-23T14:15:05.084Z,15.85
2022-09-23T14:20:15.127Z,15.78
2022-09-23T14:25:18.441Z,15.53
2022-09-23T14:30:21.182Z,15.25
2022-09-23T14:35:27.531Z,15.03
2022-09-23T14:40:33.240Z,14.75
2022-09-23T14:45:38.861Z,14.55
2022-09-23T14:50:51.413Z,14.29
2022-09-23T14:55:57.476Z,14.12
2022-09-23T15:01:01.610Z,14.03
2022-09-23T15:06:09.282Z,13.91
2022-09-23T15:11:12.184Z,13.71
2022-09-23T15:16:16.191Z,13.57
2022-09-23T15:21:21.922Z,13.48
2022-09-23T15:26:40.792Z,13.39
2022-09-23T15:31:43.651Z,13.25
2022-09-23T15:36:47.221Z,13.11
2022-09-23T15:41:50.739Z,12.97
2022-09-23T15:46:54.054Z,12.87
2022-09-23T15:52:00.280Z,12.84
2022-09-23T15:57:03.032Z,12.83
2022-09-23T16:02:21.306Z,12.76
2022-09-23T16:07:24.216Z,12.56
2022-09-23T16:12:27.105Z,12.36
2022-09-23T16:17:31.732Z,12.17
2022-09-23T16:22:34.854Z,12.00
2022-09-23T16:27:37.538Z,11.91
2022-09-23T16:32:40.261Z,11.84
2022-09-23T16:37:47.152Z,11.69
2022-09-23T16:42:52.211Z,11.53
2022-09-23T16:47:55.023Z,11.44
2022-09-23T16:52:58.107Z,11.41
2022-09-23T16:58:00.685Z,11.38
2022-09-23T17:03:23.203Z,11.37
2022-09-23T17:08:25.992Z,11.32
2022-09-23T17:13:29.556Z,11.29
2022-09-23T17:18:32.884Z,11.27
2022-09-23T17:23:36.533Z,11.16
2022-09-23T17:28:39.634Z,11.01
2022-09-23T17:33:42.844Z,10.92
2022-09-23T17:38:46.993Z,10.86
2022-09-23T17:44:00.740Z,10.86
2022-09-23T17:49:04.178Z,10.83
2022-09-23T17:54:07.911Z,10.78
2022-09-23T17:59:14.782Z,10.72
2022-09-23T18:04:17.603Z,10.64
2022-09-23T18:09:20.503Z,10.57
2022-09-23T18:14:23.945Z,10.55
2022-09-23T18:19:27.105Z,10.51
2022-09-23T18:24:33.471Z,10.48
2022-09-23T18:29:38.038Z,10.43
2022-09-23T18:34:40.708Z,10.40
2022-09-23T18:39:43.530Z,10.44
2022-09-23T18:44:46.300Z,10.46
2022-09-23T18:50:07.680Z,10.41
2022-09-23T18:55:10.788Z,10.39
2022-09-23T19:00:13.996Z,10.44
2022-09-23T19:05:16.836Z,10.41
2022-09-23T19:10:19.897Z,10.36
2022-09-23T19:15:22.579Z,10.31
2022-09-23T19:20:25.268Z,10.24
2022-09-23T19:25:28.101Z,10.19
2022-09-23T19:30:30.793Z,10.16
2022-09-23T19:35:33.706Z,10.09
2022-09-23T19:40:37.525Z,10.03
2022-09-23T19:45:41.056Z,9.99
2022-09-23T19:50:47.002Z,10.04
2022-09-23T19:55:50.024Z,10.04
2022-09-23T20:00:52.772Z,10.04
2022-09-23T20:05:59.721Z,10.03
2022-09-23T20:11:10.238Z,10.07
2022-09-23T20:16:18.717Z,10.08
2022-09-23T20:21:22.339Z,10.02
2022-09-23T20:26:44.427Z,9.94
2022-09-23T20:31:48.020Z,9.86
2022-09-23T20:36:50.799Z,9.77
2022-09-23T20:41:54.678Z,9.73
2022-09-23T20:46:57.412Z,9.71
2022-09-23T20:52:02.736Z,9.70
2022-09-23T20:57:06.613Z,9.69
2022-09-23T21:02:11.095Z,9.73
2022-09-23T21:07:14.005Z,9.77
2022-09-23T21:12:16.785Z,9.77
2022-09-23T21:17:19.448Z,9.72
2022-09-23T21:22:22.805Z,9.68
2022-09-23T21:27:25.719Z,9.61
2022-09-23T21:32:28.350Z,9.56
2022-09-23T21:37:31.001Z,9.60
2022-09-23T21:42:33.677Z,9.66
2022-09-23T21:47:36.312Z,9.66
2022-09-23T21:52:39.296Z,9.67
2022-09-23T21:57:41.996Z,9.68
2022-09-23T22:02:44.679Z,9.64
2022-09-23T22:07:47.327Z,9.60
2022-09-23T22:12:50.160Z,9.50
2022-09-23T22:17:52.848Z,9.37
2022-09-23T22:22:56.001Z,9.30
2022-09-23T22:28:17.217Z,9.24
2022-09-23T22:33:21.269Z,9.14
2022-09-23T22:38:23.966Z,9.04
2022-09-23T22:43:26.651Z,8.97
2022-09-23T22:48:30.695Z,8.91
2022-09-23T22:53:33.593Z,8.83
2022-09-23T22:58:36.263Z,8.80
2022-09-23T23:03:40.562Z,8.81
2022-09-23T23:08:43.612Z,8.83
2022-09-23T23:13:46.283Z,8.81
2022-09-23T23:18:48.918Z,8.78
2022-09-23T23:23:53.345Z,8.76
2022-09-23T23:28:57.001Z,8.74
2022-09-23T23:33:59.693Z,8.71
2022-09-23T23:39:02.595Z,8.68
2022-09-23T23:44:05.891Z,8.62
2022-09-23T23:49:09.016Z,8.49
2022-09-23T23:54:12.594Z,8.36
2022-09-23T23:59:15.231Z,8.27
